createdAt,value
2023-04-28T00:00:37.874Z,3.36
2023-04-28T00:05:39.361Z,3.24
2023-04-28T00:10:41.056Z,3.11
2023-04-28T00:15:42.565Z,3.00
2023-04-28T00:20:44.493Z,2.91
2023-04-28T00:25:52.086Z,2.78
2023-04-28T00:30:53.617Z,2.67
2023-04-28T00:36:01.704Z,2.51
2023-04-28T00:41:04.035Z,2.39
2023-04-28T00:46:05.625Z,2.32
2023-04-28T00:51:08.075Z,2.22
2023-04-28T00:56:10.505Z,2.14
2023-04-28T01:01:12.307Z,2.07
2023-04-28T01:06:14.729Z,2.01
2023-04-28T01:11:16.588Z,1.96
2023-04-28T01:16:18.567Z,1.84
2023-04-28T01:21:30.441Z,1.80
2023-04-28T01:26:31.969Z,1.75
2023-04-28T01:31:33.544Z,1.70
2023-04-28T01:36:37.257Z,1.66
2023-04-28T01:41:39.164Z,1.61
2023-04-28T01:46:41.050Z,1.54
2023-04-28T01:51:43.026Z,1.45
2023-04-28T01:56:45.005Z,1.36
2023-04-28T02:01:46.766Z,1.27
2023-04-28T02:06:48.780Z,1.21
2023-04-28T02:11:50.400Z,1.16
2023-04-28T02:16:51.939Z,1.12
2023-04-28T02:21:53.421Z,1.03
2023-04-28T02:26:54.902Z,0.99
2023-04-28T02:31:56.460Z,0.96
2023-04-28T02:36:58.010Z,0.92
2023-04-28T02:41:59.528Z,0.89
2023-04-28T02:47:01.912Z,0.86
2023-04-28T02:52:03.773Z,0.83
2023-04-28T02:57:05.261Z,0.79
2023-04-28T03:02:06.768Z,0.77
2023-04-28T03:07:08.329Z,0.75
2023-04-28T03:12:09.849Z,0.76
2023-04-28T03:17:11.590Z,0.74
2023-04-28T03:22:13.114Z,0.73
2023-04-28T03:27:14.634Z,0.74
2023-04-28T03:32:16.534Z,0.77
2023-04-28T03:37:18.348Z,0.86
2023-04-28T03:42:19.846Z,0.95
2023-04-28T03:47:21.456Z,1.09
2023-04-28T03:52:23.008Z,1.21
2023-04-28T03:57:24.581Z,1.33
2023-04-28T04:02:26.314Z,1.46
2023-04-28T04:07:27.971Z,1.60
2023-04-28T04:12:29.473Z,1.77
2023-04-28T04:17:31.586Z,1.94
2023-04-28T04:22:33.116Z,2.12
2023-04-28T04:27:34.622Z,2.32
2023-04-28T04:32:36.122Z,2.50
2023-04-28T04:37:37.920Z,2.77
2023-04-28T04:42:39.462Z,3.04
2023-04-28T04:47:41.525Z,3.29
2023-04-28T04:52:43.240Z,3.60
2023-04-28T04:57:44.752Z,3.99
2023-04-28T05:02:46.358Z,4.32
2023-04-28T05:07:48.201Z,4.60
2023-04-28T05:12:49.860Z,4.79
2023-04-28T05:17:51.479Z,4.92
2023-04-28T05:22:53.127Z,5.03
2023-04-28T05:27:56.543Z,5.20
2023-04-28T05:32:58.096Z,5.33
2023-04-28T05:37:59.831Z,5.39
2023-04-28T05:43:01.492Z,5.49
2023-04-28T05:48:05.110Z,5.63
2023-04-28T05:53:07.589Z,5.73
2023-04-28T05:58:09.260Z,5.82
2023-04-28T06:03:11.533Z,5.89
2023-04-28T06:08:13.382Z,5.99
2023-04-28T06:13:15.113Z,6.10
2023-04-28T06:18:16.726Z,6.21
2023-04-28T06:23:18.268Z,6.30
2023-04-28T06:28:19.839Z,6.38
2023-04-28T06:33:21.868Z,6.44
2023-04-28T06:38:23.458Z,6.50
2023-04-28T06:43:24.984Z,6.59
2023-04-28T06:48:26.645Z,6.69
2023-04-28T06:53:28.167Z,6.77
2023-04-28T06:58:29.818Z,6.85
2023-04-28T07:03:31.504Z,6.97
2023-04-28T07:08:33.396Z,7.13
2023-04-28T07:13:35.079Z,7.25
2023-04-28T07:18:36.590Z,7.37
2023-04-28T07:23:38.845Z,7.47
2023-04-28T07:28:40.427Z,7.52
2023-04-28T07:33:41.920Z,7.59
2023-04-28T07:38:43.641Z,7.71
2023-04-28T07:43:45.321Z,7.98
2023-04-28T07:48:46.859Z,8.34
2023-04-28T07:53:48.373Z,8.62
2023-04-28T07:58:50.051Z,8.88
2023-04-28T08:03:54.202Z,9.12
2023-04-28T08:08:56.073Z,9.57
2023-04-28T08:14:01.327Z,10.02
2023-04-28T08:19:02.865Z,10.18
2023-04-28T08:24:05.153Z,10.30
2023-04-28T08:29:06.660Z,10.58
2023-04-28T08:34:08.171Z,10.83
2023-04-28T08:39:10.744Z,11.02
2023-04-28T08:44:14.251Z,11.24
2023-04-28T08:49:18.544Z,11.39
2023-04-28T08:54:26.649Z,11.54
2023-04-28T08:59:28.989Z,11.64
2023-04-28T09:04:30.830Z,11.71
2023-04-28T09:09:34.996Z,11.80
2023-04-28T09:14:39.216Z,11.81
2023-04-28T09:19:44.684Z,11.62
2023-04-28T09:24:47.141Z,11.29
2023-04-28T09:29:54.075Z,11.11
2023-04-28T09:34:59.884Z,11.11
2023-04-28T09:40:09.933Z,11.03
2023-04-28T09:45:14.089Z,11.15
2023-04-28T09:50:17.758Z,11.46
2023-04-28T09:55:20.806Z,11.83
2023-04-28T10:00:30.655Z,12.05
2023-04-28T10:05:34.111Z,12.22
2023-04-28T10:10:37.801Z,12.21
2023-04-28T10:15:39.690Z,12.17
2023-04-28T10:20:47.134Z,12.06
2023-04-28T10:25:52.959Z,11.95
2023-04-28T10:31:11.896Z,12.00
2023-04-28T10:36:55.853Z,12.12
2023-04-28T10:41:57.477Z,12.28
2023-04-28T10:47:06.965Z,12.46
2023-04-28T10:52:40.753Z,12.82
2023-04-28T10:57:42.928Z,13.08
2023-04-28T11:02:47.139Z,13.37
2023-04-28T11:08:26.224Z,13.40
2023-04-28T11:13:31.779Z,13.38
2023-04-28T11:18:55.489Z,13.34
2023-04-28T11:23:58.830Z,13.12
2023-04-28T11:29:00.414Z,12.98
2023-04-28T11:34:07.838Z,12.81
2023-04-28T11:39:10.963Z,12.53
2023-04-28T11:44:17.729Z,12.51
2023-04-28T11:49:20.739Z,12.49
2023-04-28T11:54:27.656Z,12.60
2023-04-28T11:59:31.718Z,12.65
2023-04-28T12:04:38.359Z,12.71
2023-04-28T12:09:43.569Z,12.68
2023-04-28T12:14:59.438Z,12.73
2023-04-28T12:20:03.662Z,12.88
2023-04-28T12:25:07.022Z,13.08
2023-04-28T12:30:23.742Z,13.47
2023-04-28T12:35:26.884Z,13.76
2023-04-28T12:40:28.424Z,13.88
2023-04-28T12:45:31.347Z,14.08
2023-04-28T12:50:33.292Z,14.28
2023-04-28T12:55:35.021Z,14.33
2023-04-28T13:00:40.263Z,14.45
2023-04-28T13:05:41.873Z,14.54
2023-04-28T13:10:43.646Z,14.83
2023-04-28T13:15:46.515Z,14.88
2023-04-28T13:20:47.955Z,14.74
2023-04-28T13:25:50.834Z,14.87
2023-04-28T13:30:52.491Z,14.58
2023-04-28T13:35:53.973Z,14.65
2023-04-28T13:40:55.473Z,14.88
2023-04-28T13:45:57.328Z,14.70
2023-04-28T13:50:58.851Z,14.58
2023-04-28T13:56:00.341Z,14.84
2023-04-28T14:01:03.807Z,15.26
2023-04-28T14:06:07.103Z,15.40
2023-04-28T14:11:09.509Z,15.51
2023-04-28T14:16:12.335Z,15.36
2023-04-28T14:21:13.948Z,15.41
2023-04-28T14:26:15.514Z,15.67
2023-04-28T14:31:18.338Z,15.97
2023-04-28T14:36:20.722Z,16.09
2023-04-28T14:41:22.286Z,16.29
2023-04-28T14:46:24.228Z,16.41
2023-04-28T14:51:26.142Z,16.50
2023-04-28T14:56:27.624Z,16.48
2023-04-28T15:01:31.252Z,15.96
2023-04-28T15:06:33.713Z,15.80
2023-04-28T15:11:35.335Z,16.06
2023-04-28T15:16:37.116Z,16.17
2023-04-28T15:21:39.222Z,16.14
2023-04-28T15:26:40.773Z,16.11
2023-04-28T15:31:42.368Z,16.10
2023-04-28T15:36:44.771Z,15.97
2023-04-28T15:41:47.153Z,15.88
2023-04-28T15:46:48.719Z,15.86
2023-04-28T15:51:50.515Z,15.99
2023-04-28T15:56:52.026Z,16.01
2023-04-28T16:01:55.506Z,16.01
2023-04-28T16:06:58.880Z,15.91
2023-04-28T16:12:01.077Z,15.81
2023-04-28T16:17:02.595Z,15.75
2023-04-28T16:22:04.109Z,15.83
2023-04-28T16:27:06.082Z,15.80
2023-04-28T16:32:07.729Z,15.54
2023-04-28T16:37:10.936Z,15.31
2023-04-28T16:42:12.442Z,14.96
2023-04-28T16:47:15.227Z,14.69
2023-04-28T16:52:17.036Z,14.40
2023-04-28T16:57:18.697Z,14.18
2023-04-28T17:02:20.321Z,13.93
2023-04-28T17:07:24.060Z,13.74
2023-04-28T17:12:27.146Z,13.53
2023-04-28T17:17:29.197Z,13.15
2023-04-28T17:22:34.786Z,12.87
2023-04-28T17:27:36.372Z,12.64
2023-04-28T17:32:38.722Z,12.39
2023-04-28T17:37:40.253Z,12.12
2023-04-28T17:42:45.262Z,11.90
2023-04-28T17:47:47.114Z,11.69
2023-04-28T17:52:48.945Z,11.52
2023-04-28T17:57:51.821Z,11.34
2023-04-28T18:02:55.177Z,11.15
2023-04-28T18:08:02.018Z,10.97
2023-04-28T18:13:03.550Z,10.80
2023-04-28T18:18:05.103Z,10.63
2023-04-28T18:23:07.241Z,10.48
2023-04-28T18:28:10.458Z,10.32
2023-04-28T18:33:11.963Z,10.18
2023-04-28T18:38:13.893Z,10.06
2023-04-28T18:43:15.572Z,9.92
2023-04-28T18:48:17.194Z,9.79
2023-04-28T18:53:19.059Z,9.70
2023-04-28T18:58:21.097Z,9.58
2023-04-28T19:03:23.771Z,9.46
2023-04-28T19:08:25.358Z,9.35
2023-04-28T19:13:27.438Z,9.23
2023-04-28T19:18:31.233Z,9.14
2023-04-28T19:23:33.909Z,9.03
2023-04-28T19:28:36.050Z,8.89
2023-04-28T19:33:37.564Z,8.71
2023-04-28T19:38:40.375Z,8.55
2023-04-28T19:43:43.511Z,8.44
2023-04-28T19:48:46.685Z,8.41
2023-04-28T19:53:49.387Z,8.34
2023-04-28T19:58:51.071Z,8.25
2023-04-28T20:03:54.186Z,8.18
2023-04-28T20:08:55.905Z,8.06
2023-04-28T20:13:57.530Z,8.01
2023-04-28T20:18:59.115Z,7.96
2023-04-28T20:24:00.585Z,7.90
2023-04-28T20:29:03.342Z,7.87
2023-04-28T20:34:04.878Z,7.82
2023-04-28T20:39:07.710Z,7.76
2023-04-28T20:44:09.225Z,7.69
2023-04-28T20:49:12.378Z,7.62
2023-04-28T20:54:14.520Z,7.58
2023-04-28T20:59:16.078Z,7.50
2023-04-28T21:04:17.631Z,7.43
2023-04-28T21:09:20.297Z,7.37
2023-04-28T21:14:22.210Z,7.34
2023-04-28T21:19:23.733Z,7.29
2023-04-28T21:24:25.286Z,7.24
2023-04-28T21:29:27.624Z,7.20
2023-04-28T21:34:29.337Z,7.14
2023-04-28T21:39:30.873Z,7.07
2023-04-28T21:44:32.343Z,7.01
2023-04-28T21:49:33.822Z,6.95
2023-04-28T21:54:35.841Z,6.89
2023-04-28T21:59:37.387Z,6.83
2023-04-28T22:04:39.017Z,6.76
2023-04-28T22:09:40.739Z,6.70
2023-04-28T22:14:42.231Z,6.62
2023-04-28T22:19:43.802Z,6.57
2023-04-28T22:24:45.447Z,6.49
2023-04-28T22:29:47.741Z,6.42
2023-04-28T22:34:49.631Z,6.39
2023-04-28T22:39:51.488Z,6.34
2023-04-28T22:44:53.363Z,6.30
2023-04-28T22:49:55.102Z,6.25
2023-04-28T22:54:56.789Z,6.20
2023-04-28T22:59:58.552Z,6.14
2023-04-28T23:05:01.187Z,6.08
2023-04-28T23:10:05.072Z,6.02
2023-04-28T23:15:07.477Z,5.95
2023-04-28T23:20:09.851Z,5.93
2023-04-28T23:25:11.557Z,5.89
2023-04-28T23:30:13.330Z,5.85
2023-04-28T23:35:15.386Z,5.81
2023-04-28T23:40:16.910Z,5.77
2023-04-28T23:45:18.561Z,5.70
2023-04-28T23:50:20.050Z,5.65
2023-04-28T23:55:21.564Z,5.61
